createdAt,value
2018-06-22T00:02:31.122Z,10.90
2018-06-22T00:05:02.416Z,11.73
2018-06-22T00:07:34.561Z,10.80
2018-06-22T00:10:05.745Z,11.20
2018-06-22T00:12:36.894Z,11.10
2018-06-22T00:15:07.992Z,10.10
2018-06-22T00:17:38.996Z,10.10
2018-06-22T00:20:09.898Z,10.13
2018-06-22T00:22:41.741Z,10.47
2018-06-22T00:25:13.073Z,10.97
2018-06-22T00:27:46.134Z,11.77
2018-06-22T00:30:17.653Z,10.33
2018-06-22T00:32:49.835Z,10.77
2018-06-22T00:35:23.660Z,10.30
2018-06-22T00:37:54.653Z,11.90
2018-06-22T00:40:27.684Z,10.30
2018-06-22T00:42:58.949Z,11.30
2018-06-22T00:45:30.468Z,9.97
2018-06-22T00:48:01.748Z,11.17
2018-06-22T00:50:32.784Z,10.90
2018-06-22T00:53:04.309Z,11.30
2018-06-22T00:55:36.323Z,10.30
2018-06-22T00:58:07.532Z,10.87
2018-06-22T01:00:39.027Z,11.40
2018-06-22T01:03:10.333Z,10.03
2018-06-22T01:05:42.334Z,11.40
2018-06-22T01:08:14.054Z,10.80
2018-06-22T01:10:45.182Z,11.87
2018-06-22T01:13:16.371Z,11.57
2018-06-22T01:15:47.456Z,10.83
2018-06-22T01:18:18.638Z,10.97
2018-06-22T01:20:51.469Z,10.77
2018-06-22T01:23:22.351Z,10.80
2018-06-22T01:25:53.532Z,10.40
2018-06-22T01:28:25.526Z,10.60
2018-06-22T01:30:59.748Z,10.60
2018-06-22T01:33:31.577Z,10.27
2018-06-22T01:36:03.826Z,10.50
2018-06-22T01:38:36.152Z,10.50
2018-06-22T01:41:07.306Z,10.80
2018-06-22T01:43:38.774Z,11.83
2018-06-22T01:46:10.154Z,9.80
2018-06-22T01:48:41.663Z,10.60
2018-06-22T01:51:12.507Z,10.27
2018-06-22T01:53:44.002Z,10.20
2018-06-22T01:56:15.759Z,11.10
2018-06-22T01:58:46.809Z,11.07
2018-06-22T02:01:20.163Z,10.57
2018-06-22T02:03:52.474Z,11.87
2018-06-22T02:06:24.007Z,11.17
2018-06-22T02:08:58.074Z,11.50
2018-06-22T02:11:30.162Z,12.37
2018-06-22T02:14:01.241Z,11.73
2018-06-22T02:16:33.981Z,11.57
2018-06-22T02:19:05.049Z,11.87
2018-06-22T02:21:36.680Z,10.60
2018-06-22T02:24:10.036Z,11.53
2018-06-22T02:26:41.740Z,11.20
2018-06-22T02:29:12.723Z,11.97
2018-06-22T02:31:43.889Z,11.30
2018-06-22T02:34:17.979Z,11.67
2018-06-22T02:36:49.419Z,10.73
2018-06-22T02:39:20.675Z,11.13
2018-06-22T02:41:52.282Z,11.17
2018-06-22T02:44:23.482Z,10.77
2018-06-22T02:46:54.464Z,11.90
2018-06-22T02:49:25.352Z,11.03
2018-06-22T02:51:56.695Z,12.23
2018-06-22T02:54:28.019Z,10.50
2018-06-22T02:56:59.267Z,11.27
2018-06-22T02:59:30.348Z,9.87
2018-06-22T03:02:01.517Z,10.60
2018-06-22T03:04:32.835Z,10.90
2018-06-22T03:07:04.799Z,11.87
2018-06-22T03:09:36.354Z,11.17
2018-06-22T03:12:08.185Z,10.63
2018-06-22T03:14:40.272Z,10.93
2018-06-22T03:17:12.267Z,10.77
2018-06-22T03:19:44.072Z,11.23
2018-06-22T03:22:16.384Z,11.20
2018-06-22T03:24:48.001Z,10.30
2018-06-22T03:27:19.866Z,10.33
2018-06-22T03:29:51.479Z,10.80
2018-06-22T03:32:22.418Z,10.07
2018-06-22T03:34:54.334Z,10.97
2018-06-22T03:37:25.470Z,11.23
2018-06-22T03:39:56.973Z,10.20
2018-06-22T03:42:30.363Z,10.90
2018-06-22T03:45:02.138Z,10.60
2018-06-22T03:47:35.043Z,10.13
2018-06-22T03:50:06.261Z,9.93
2018-06-22T03:52:37.457Z,9.63
2018-06-22T03:55:09.596Z,10.37
2018-06-22T03:57:40.527Z,10.50
2018-06-22T04:00:12.169Z,10.00
2018-06-22T04:02:44.315Z,10.50
2018-06-22T04:05:16.927Z,10.40
2018-06-22T04:07:48.211Z,10.10
2018-06-22T04:10:19.755Z,10.80
2018-06-22T04:12:50.902Z,12.03
2018-06-22T04:15:23.665Z,11.60
2018-06-22T04:17:55.660Z,11.10
2018-06-22T04:20:27.299Z,10.77
2018-06-22T04:22:58.290Z,11.47
2018-06-22T04:25:29.434Z,11.33
2018-06-22T04:28:00.527Z,10.53
2018-06-22T04:30:31.814Z,10.17
2018-06-22T04:33:03.375Z,11.37
2018-06-22T04:35:37.098Z,11.30
2018-06-22T04:38:08.390Z,10.90
2018-06-22T04:40:40.929Z,11.70
2018-06-22T04:43:11.959Z,11.87
2018-06-22T04:45:44.426Z,10.60
2018-06-22T04:48:16.152Z,10.07
2018-06-22T04:50:47.473Z,11.00
2018-06-22T04:53:21.614Z,10.93
2018-06-22T04:55:54.336Z,11.07
2018-06-22T04:58:26.305Z,10.70
2018-06-22T05:00:57.723Z,10.20
2018-06-22T05:03:30.093Z,10.17
2018-06-22T05:06:03.047Z,10.47
2018-06-22T05:08:35.608Z,10.33
2018-06-22T05:11:07.258Z,11.10
2018-06-22T05:13:38.874Z,11.07
2018-06-22T05:16:10.616Z,10.90
2018-06-22T05:18:42.214Z,13.17
2018-06-22T05:21:13.378Z,11.90
2018-06-22T05:23:44.562Z,11.70
2018-06-22T05:26:17.088Z,13.77
2018-06-22T05:28:49.187Z,12.67
2018-06-22T05:31:20.261Z,11.90
2018-06-22T05:33:52.022Z,12.00
2018-06-22T05:36:23.861Z,12.40
2018-06-22T05:38:54.906Z,11.47
2018-06-22T05:41:26.162Z,11.43
2018-06-22T05:43:58.421Z,10.93
2018-06-22T05:46:29.915Z,11.20
2018-06-22T05:49:01.150Z,10.87
2018-06-22T05:51:32.431Z,11.03
2018-06-22T05:54:03.621Z,11.23
2018-06-22T05:56:35.097Z,12.17
2018-06-22T05:59:06.598Z,19.83
2018-06-22T06:01:37.508Z,24.10
2018-06-22T06:04:11.904Z,22.30
2018-06-22T06:06:44.287Z,20.80
2018-06-22T06:09:19.847Z,16.73
2018-06-22T06:11:51.906Z,22.70
2018-06-22T06:14:23.228Z,17.43
2018-06-22T06:16:54.318Z,19.03
2018-06-22T06:19:26.500Z,19.17
2018-06-22T06:21:57.883Z,17.93
2018-06-22T06:24:29.122Z,17.20
2018-06-22T06:27:00.258Z,18.53
2018-06-22T06:29:32.879Z,22.07
2018-06-22T06:32:07.588Z,17.13
2018-06-22T06:34:39.017Z,20.00
2018-06-22T06:37:10.503Z,23.00
2018-06-22T06:39:42.741Z,18.97
2018-06-22T06:42:14.913Z,20.83
2018-06-22T06:44:46.334Z,22.57
2018-06-22T06:47:17.696Z,18.77
2018-06-22T06:49:48.895Z,18.10
2018-06-22T06:52:20.092Z,17.73
2018-06-22T06:54:52.582Z,16.70
2018-06-22T06:57:23.644Z,17.77
2018-06-22T06:59:55.297Z,15.10
2018-06-22T07:02:28.263Z,14.40
2018-06-22T07:04:59.692Z,14.40
2018-06-22T07:07:30.861Z,14.47
2018-06-22T07:10:02.298Z,14.37
2018-06-22T07:12:34.020Z,15.40
2018-06-22T07:15:06.173Z,14.30
2018-06-22T07:17:37.431Z,15.47
2018-06-22T07:20:08.362Z,14.60
2018-06-22T07:22:39.720Z,16.67
2018-06-22T07:25:10.726Z,17.10
2018-06-22T07:27:41.842Z,16.27
2018-06-22T07:30:12.984Z,17.00
2018-06-22T07:32:45.726Z,16.43
2018-06-22T07:35:16.809Z,15.30
2018-06-22T07:37:48.123Z,14.10
2018-06-22T07:40:19.412Z,14.63
2018-06-22T07:42:50.652Z,13.27
2018-06-22T07:45:21.905Z,14.60
2018-06-22T07:47:53.210Z,14.57
2018-06-22T07:50:24.165Z,13.37
2018-06-22T07:52:55.532Z,12.90
2018-06-22T07:55:27.055Z,12.70
2018-06-22T07:57:58.226Z,13.37
2018-06-22T08:00:29.829Z,13.47
2018-06-22T08:03:00.889Z,14.90
2018-06-22T08:05:34.196Z,16.00
2018-06-22T08:08:05.908Z,16.43
2018-06-22T08:10:36.946Z,14.57
2018-06-22T08:13:08.709Z,18.00
2018-06-22T08:15:41.265Z,16.97
2018-06-22T08:18:15.065Z,16.00
2018-06-22T08:20:47.355Z,18.50
2018-06-22T08:23:18.729Z,16.40
2018-06-22T08:25:49.695Z,20.40
2018-06-22T08:28:20.944Z,24.83
2018-06-22T08:30:52.080Z,20.10
2018-06-22T08:33:23.569Z,25.83
2018-06-22T08:35:54.950Z,22.40
2018-06-22T08:38:26.343Z,20.70
2018-06-22T08:40:57.444Z,19.20
2018-06-22T08:43:29.589Z,18.70
2018-06-22T08:46:00.564Z,19.90
2018-06-22T08:48:31.999Z,22.77
2018-06-22T08:51:03.151Z,21.63
2018-06-22T08:53:34.409Z,20.77
2018-06-22T08:56:05.623Z,20.30
2018-06-22T08:58:38.476Z,16.10
2018-06-22T09:01:09.715Z,16.70
2018-06-22T09:03:41.749Z,15.67
2018-06-22T09:06:12.864Z,14.50
2018-06-22T09:08:43.837Z,14.80
2018-06-22T09:11:14.974Z,15.47
2018-06-22T09:13:48.728Z,14.67
2018-06-22T09:16:20.064Z,19.13
2018-06-22T09:18:51.258Z,16.40
2018-06-22T09:21:22.649Z,19.30
2018-06-22T09:23:53.684Z,17.00
2018-06-22T09:26:25.729Z,17.90
2018-06-22T09:28:57.597Z,17.60
2018-06-22T09:31:29.043Z,17.97
2018-06-22T09:34:00.431Z,17.33
2018-06-22T09:36:32.536Z,20.90
2018-06-22T09:39:03.714Z,20.10
2018-06-22T09:41:34.774Z,17.40
2018-06-22T09:44:06.087Z,18.20
2018-06-22T09:46:37.080Z,20.70
2018-06-22T09:49:08.297Z,19.47
2018-06-22T09:51:39.429Z,19.03
2018-06-22T09:54:10.617Z,18.40
2018-06-22T09:56:42.766Z,18.73
2018-06-22T09:59:13.834Z,17.87
2018-06-22T10:01:45.264Z,19.03
2018-06-22T10:04:17.221Z,18.43
2018-06-22T10:06:48.774Z,21.40
2018-06-22T10:09:19.850Z,20.60
2018-06-22T10:11:51.039Z,20.50
2018-06-22T10:14:23.173Z,17.07
2018-06-22T10:16:54.300Z,18.27
2018-06-22T10:19:25.546Z,17.30
2018-06-22T10:21:56.748Z,15.93
2018-06-22T10:24:28.128Z,15.50
2018-06-22T10:26:59.417Z,14.40
2018-06-22T10:29:30.893Z,14.03
2018-06-22T10:32:02.032Z,13.67
2018-06-22T10:34:33.417Z,12.93
2018-06-22T10:37:04.540Z,14.07
2018-06-22T10:39:35.724Z,14.27
2018-06-22T10:42:06.853Z,13.07
2018-06-22T10:44:38.558Z,13.33
2018-06-22T10:47:10.144Z,13.07
2018-06-22T10:49:41.436Z,13.30
2018-06-22T10:52:12.474Z,13.70
2018-06-22T10:54:43.453Z,14.20
2018-06-22T10:57:14.720Z,13.57
2018-06-22T10:59:46.168Z,13.80
2018-06-22T11:02:18.081Z,12.60
2018-06-22T11:04:49.798Z,12.83
2018-06-22T11:07:22.757Z,13.53
2018-06-22T11:09:53.893Z,13.43
2018-06-22T11:12:25.086Z,12.80
2018-06-22T11:14:56.166Z,12.90
2018-06-22T11:17:28.208Z,13.30
2018-06-22T11:20:00.398Z,13.10
2018-06-22T11:22:32.515Z,13.93
2018-06-22T11:25:03.961Z,14.73
2018-06-22T11:27:36.452Z,12.93
2018-06-22T11:30:07.810Z,13.80
2018-06-22T11:32:38.911Z,13.00
2018-06-22T11:35:10.121Z,12.53
2018-06-22T11:37:41.247Z,13.90
2018-06-22T11:40:12.557Z,13.23
2018-06-22T11:42:43.661Z,13.40
2018-06-22T11:45:15.630Z,13.40
2018-06-22T11:47:46.571Z,13.87
2018-06-22T11:50:17.820Z,13.00
2018-06-22T11:52:49.079Z,12.47
2018-06-22T11:55:20.165Z,11.63
2018-06-22T11:57:51.369Z,12.93
2018-06-22T12:00:22.901Z,11.70
2018-06-22T12:02:54.238Z,13.80
2018-06-22T12:05:26.064Z,11.93
2018-06-22T12:07:57.195Z,12.60
2018-06-22T12:10:29.168Z,12.97
2018-06-22T12:13:00.370Z,12.83
2018-06-22T12:15:31.480Z,12.63
2018-06-22T12:18:02.741Z,11.30
2018-06-22T12:20:33.830Z,12.13
2018-06-22T12:23:14.231Z,13.00
2018-06-22T12:25:45.223Z,13.50
2018-06-22T12:28:16.421Z,11.70
2018-06-22T12:30:48.416Z,11.57
2018-06-22T12:33:20.470Z,12.87
2018-06-22T12:35:51.649Z,13.10
2018-06-22T12:38:22.680Z,13.23
2018-06-22T12:40:54.332Z,13.43
2018-06-22T12:43:25.512Z,14.13
2018-06-22T12:45:56.878Z,12.27
2018-06-22T12:48:28.852Z,12.57
2018-06-22T12:51:00.554Z,12.53
2018-06-22T12:53:31.405Z,12.37
2018-06-22T12:56:02.562Z,13.20
2018-06-22T12:58:33.788Z,11.37
2018-06-22T13:01:05.075Z,11.63
2018-06-22T13:03:36.445Z,11.93
2018-06-22T13:06:08.582Z,13.23
2018-06-22T13:08:40.895Z,12.17
2018-06-22T13:11:12.167Z,12.23
2018-06-22T13:13:43.451Z,12.53
2018-06-22T13:16:14.770Z,13.23
2018-06-22T13:18:46.880Z,12.70
2018-06-22T13:21:18.011Z,12.17
2018-06-22T13:23:49.093Z,13.33
2018-06-22T13:26:19.996Z,13.10
2018-06-22T13:28:52.051Z,11.43
2018-06-22T13:31:23.186Z,11.43
2018-06-22T13:33:54.222Z,12.40
2018-06-22T13:36:25.281Z,13.03
2018-06-22T13:38:56.215Z,12.20
2018-06-22T13:41:27.599Z,13.47
2018-06-22T13:43:59.374Z,10.33
2018-06-22T13:46:30.668Z,10.17
2018-06-22T13:49:03.047Z,9.00
2018-06-22T13:51:34.565Z,10.23
2018-06-22T13:54:05.731Z,10.20
2018-06-22T13:56:37.911Z,10.70
2018-06-22T13:59:09.126Z,13.20
2018-06-22T14:01:40.099Z,12.13
2018-06-22T14:04:16.759Z,13.03
2018-06-22T14:06:52.384Z,12.93
2018-06-22T14:09:23.698Z,10.53
2018-06-22T14:11:54.999Z,11.83
2018-06-22T14:14:26.760Z,11.00
2018-06-22T14:16:58.030Z,11.80
2018-06-22T14:19:29.148Z,14.50
2018-06-22T14:22:00.148Z,13.00
2018-06-22T14:24:31.083Z,11.80
2018-06-22T14:27:02.208Z,11.17
2018-06-22T14:29:34.491Z,10.97
2018-06-22T14:32:05.693Z,10.80
2018-06-22T14:34:36.838Z,11.00
2018-06-22T14:37:09.073Z,11.30
2018-06-22T14:39:40.089Z,11.17
2018-06-22T14:42:11.328Z,11.07
2018-06-22T14:44:42.234Z,13.70
2018-06-22T14:47:13.425Z,12.83
2018-06-22T14:49:44.523Z,11.50
2018-06-22T14:52:15.491Z,10.23
2018-06-22T14:54:51.919Z,10.03
2018-06-22T14:57:28.337Z,11.03
2018-06-22T15:00:04.254Z,10.43
2018-06-22T15:02:40.956Z,10.27
2018-06-22T15:05:16.907Z,11.10
2018-06-22T15:07:57.817Z,10.80
2018-06-22T15:10:29.004Z,10.40
2018-06-22T15:13:00.175Z,11.83
2018-06-22T15:15:31.216Z,10.90
2018-06-22T15:18:02.290Z,11.13
2018-06-22T15:20:33.426Z,13.90
2018-06-22T15:23:05.661Z,13.07
2018-06-22T15:25:37.883Z,11.40
2018-06-22T15:28:08.981Z,10.80
2018-06-22T15:30:40.085Z,11.60
2018-06-22T15:33:16.825Z,11.07
2018-06-22T15:35:52.615Z,12.00
2018-06-22T15:38:28.571Z,10.23
2018-06-22T15:41:04.759Z,11.23
2018-06-22T15:43:40.778Z,11.10
2018-06-22T15:46:16.788Z,10.97
2018-06-22T15:48:53.226Z,10.87
2018-06-22T15:51:29.306Z,12.77
2018-06-22T15:54:05.378Z,12.60
2018-06-22T15:56:36.620Z,12.57
2018-06-22T15:59:07.751Z,12.77
2018-06-22T16:01:39.374Z,13.77
2018-06-22T16:04:11.869Z,13.17
2018-06-22T16:06:43.130Z,11.40
2018-06-22T16:09:14.220Z,12.40
2018-06-22T16:11:45.346Z,12.73
2018-06-22T16:14:21.304Z,12.53
2018-06-22T16:16:57.205Z,12.40
2018-06-22T16:19:33.499Z,12.60
2018-06-22T16:22:09.844Z,12.23
2018-06-22T16:25:48.980Z,12.47
2018-06-22T16:28:19.992Z,13.70
2018-06-22T16:30:51.213Z,12.37
2018-06-22T16:33:22.362Z,13.30
2018-06-22T16:35:53.528Z,12.63
2018-06-22T16:38:24.752Z,12.70
2018-06-22T16:40:56.575Z,13.10
2018-06-22T16:43:29.448Z,13.33
2018-06-22T16:46:00.497Z,11.50
2018-06-22T16:48:31.481Z,13.20
2018-06-22T16:51:02.831Z,16.60
2018-06-22T16:53:33.942Z,14.90
2018-06-22T16:56:06.067Z,15.10
2018-06-22T16:58:40.076Z,15.90
2018-06-22T17:01:12.402Z,16.27
2018-06-22T17:03:43.452Z,15.00
2018-06-22T17:06:14.923Z,12.50
2018-06-22T17:08:50.863Z,12.50
2018-06-22T17:11:26.967Z,13.47
2018-06-22T17:14:02.860Z,12.00
2018-06-22T17:16:38.710Z,12.70
2018-06-22T17:19:09.924Z,12.40
2018-06-22T17:21:41.749Z,12.20
2018-06-22T17:24:14.166Z,11.90
2018-06-22T17:26:45.465Z,11.47
2018-06-22T17:29:16.714Z,11.83
2018-06-22T17:31:47.908Z,11.60
2018-06-22T17:34:19.013Z,11.50
2018-06-22T17:36:50.205Z,12.20
2018-06-22T17:39:21.368Z,13.40
2018-06-22T17:41:52.415Z,12.30
2018-06-22T17:44:23.547Z,11.87
2018-06-22T17:46:55.068Z,11.97
2018-06-22T17:49:26.880Z,11.97
2018-06-22T17:51:58.255Z,12.13
2018-06-22T17:54:29.406Z,12.57
2018-06-22T17:57:01.341Z,12.50
2018-06-22T17:59:37.284Z,12.90
2018-06-22T18:02:13.634Z,12.80
2018-06-22T18:04:46.633Z,14.20
2018-06-22T18:07:23.244Z,14.83
2018-06-22T18:09:59.528Z,15.10
2018-06-22T18:12:37.186Z,13.73
2018-06-22T18:15:08.428Z,14.73
2018-06-22T18:17:39.625Z,13.63
2018-06-22T18:20:10.860Z,12.60
2018-06-22T18:22:41.986Z,13.70
2018-06-22T18:25:14.103Z,13.40
2018-06-22T18:27:46.401Z,12.80
2018-06-22T18:30:18.037Z,12.97
2018-06-22T18:32:49.246Z,12.70
2018-06-22T18:35:20.868Z,13.63
2018-06-22T18:37:51.991Z,12.00
2018-06-22T18:40:23.078Z,12.20
2018-06-22T18:42:55.309Z,11.27
2018-06-22T18:45:27.044Z,10.63
2018-06-22T18:47:58.283Z,11.83
2018-06-22T18:50:29.172Z,11.00
2018-06-22T18:53:06.363Z,10.90
2018-06-22T18:55:42.248Z,12.73
2018-06-22T18:58:17.930Z,10.90
2018-06-22T19:00:54.545Z,11.90
2018-06-22T19:03:30.519Z,12.67
2018-06-22T19:06:01.630Z,13.10
2018-06-22T19:08:32.765Z,13.67
2018-06-22T19:11:04.043Z,13.60
2018-06-22T19:13:38.144Z,13.80
2018-06-22T19:16:09.271Z,14.80
2018-06-22T19:18:40.834Z,16.73
2018-06-22T19:21:12.125Z,16.40
2018-06-22T19:23:43.195Z,16.17
2018-06-22T19:26:14.379Z,14.77
2018-06-22T19:28:45.525Z,15.90
2018-06-22T19:31:16.656Z,15.73
2018-06-22T19:33:47.973Z,13.90
2018-06-22T19:36:19.438Z,12.83
2018-06-22T19:38:51.208Z,12.40
2018-06-22T19:41:22.334Z,11.67
2018-06-22T19:43:58.397Z,11.47
2018-06-22T19:46:34.473Z,10.80
2018-06-22T19:49:10.540Z,11.30
2018-06-22T19:52:45.855Z,12.43
2018-06-22T19:55:17.313Z,10.33
2018-06-22T19:57:48.522Z,11.30
2018-06-22T20:00:20.888Z,11.47
2018-06-22T20:02:51.957Z,10.73
2018-06-22T20:05:25.119Z,10.80
2018-06-22T20:07:56.841Z,11.17
2018-06-22T20:10:28.424Z,11.37
2018-06-22T20:12:59.565Z,11.70
2018-06-22T20:15:30.823Z,11.47
2018-06-22T20:18:02.224Z,10.40
2018-06-22T20:20:33.668Z,10.40
2018-06-22T20:23:05.926Z,11.10
2018-06-22T20:25:41.795Z,10.27
2018-06-22T20:28:12.738Z,10.37
2018-06-22T20:30:44.541Z,9.30
2018-06-22T20:33:16.244Z,10.10
2018-06-22T20:35:52.062Z,9.53
2018-06-22T20:38:28.131Z,10.97
2018-06-22T20:41:04.057Z,9.80
2018-06-22T20:43:40.115Z,10.23
2018-06-22T20:46:11.394Z,10.50
2018-06-22T20:48:47.235Z,10.83
2018-06-22T20:51:18.587Z,10.23
2018-06-22T20:53:49.632Z,10.10
2018-06-22T20:56:21.029Z,11.60
2018-06-22T20:58:51.951Z,12.40
2018-06-22T21:01:23.011Z,16.23
2018-06-22T21:03:53.934Z,16.63
2018-06-22T21:06:24.903Z,19.30
2018-06-22T21:08:56.210Z,16.50
2018-06-22T21:11:27.707Z,12.60
2018-06-22T21:13:59.781Z,16.77
2018-06-22T21:16:31.265Z,13.60
2018-06-22T21:19:02.943Z,10.33
2018-06-22T21:21:39.773Z,8.70
2018-06-22T21:24:10.873Z,7.90
2018-06-22T21:26:42.391Z,8.37
2018-06-22T21:29:19.015Z,8.07
2018-06-22T21:31:55.249Z,7.83
2018-06-22T21:34:31.398Z,8.50
2018-06-22T21:37:08.170Z,8.17
2018-06-22T21:39:39.210Z,8.90
2018-06-22T21:42:10.584Z,8.60
2018-06-22T21:44:41.618Z,8.80
2018-06-22T21:47:13.051Z,8.90
2018-06-22T21:49:44.108Z,8.70
2018-06-22T21:52:15.928Z,8.77
2018-06-22T21:54:46.994Z,9.00
2018-06-22T21:57:18.318Z,8.83
2018-06-22T21:59:49.284Z,9.90
2018-06-22T22:02:20.735Z,8.40
2018-06-22T22:04:51.789Z,8.83
2018-06-22T22:07:22.764Z,9.07
2018-06-22T22:09:53.935Z,9.43
2018-06-22T22:12:25.152Z,9.50
2018-06-22T22:14:56.254Z,8.33
2018-06-22T22:17:27.467Z,7.97
2018-06-22T22:20:00.971Z,8.50
2018-06-22T22:22:32.042Z,9.10
2018-06-22T22:25:04.293Z,9.43
2018-06-22T22:27:35.345Z,9.17
2018-06-22T22:30:08.294Z,8.33
2018-06-22T22:32:40.252Z,8.50
2018-06-22T22:35:11.336Z,8.93
2018-06-22T22:37:42.837Z,8.50
2018-06-22T22:40:13.827Z,9.10
2018-06-22T22:42:44.831Z,8.10
2018-06-22T22:45:15.779Z,8.80
2018-06-22T22:47:47.931Z,8.27
2018-06-22T22:50:19.018Z,9.77
2018-06-22T22:52:51.206Z,9.93
2018-06-22T22:55:23.438Z,8.60
2018-06-22T22:57:54.828Z,8.97
2018-06-22T23:00:26.749Z,8.80
2018-06-22T23:02:57.676Z,8.30
2018-06-22T23:05:28.686Z,9.10
2018-06-22T23:07:59.658Z,9.00
2018-06-22T23:10:31.415Z,9.23
2018-06-22T23:13:02.329Z,8.50
2018-06-22T23:15:33.465Z,8.30
2018-06-22T23:18:04.526Z,8.47
2018-06-22T23:20:35.623Z,8.10
2018-06-22T23:23:17.340Z,8.33
2018-06-22T23:25:48.492Z,7.80
2018-06-22T23:28:19.588Z,8.30
2018-06-22T23:30:50.805Z,8.60
2018-06-22T23:33:22.329Z,7.73
2018-06-22T23:35:53.527Z,7.90
2018-06-22T23:38:24.886Z,8.47
2018-06-22T23:40:56.167Z,7.80
2018-06-22T23:43:27.534Z,7.70
2018-06-22T23:45:58.587Z,7.97
2018-06-22T23:48:30.903Z,8.00
2018-06-22T23:51:02.940Z,8.60
2018-06-22T23:53:34.803Z,7.90
2018-06-22T23:56:05.892Z,8.27
2018-06-22T23:58:37.077Z,8.57
